Rechercher aéroport 
image banner adimage banner adimage banner ad
image banner ad

PS48 - Larksville Borough

Situé à Edwardsville Borough, United States

ICAO - PS48, IATA -

Données fournies par Airmate  

Information générale

Coordonnées: N41°15'34" W75°56'7"
Élévation : 769 feet MSL.
Variation magnétique : -11° East
Voir autres Aéroports à Pennsylvania

Données opérationnelles

Special qualification required
Heure actuelle UTC:
Heure actuelle locale:
Météo à : KAVP - Wilkes-Barre/Scranton Intl ( 20 km )
METAR: KAVP 150554Z 21003KT 5SM BR OVC002 17/16 A2980 RMK AO2 SLP083 T01720161 10200 20167 53001
TAF: KAVP 150532Z 1506/1606 VRB03KT P6SM BKN008 TEMPO 1509/1512 1 1/2SM BR FM151200 VRB03KT 5SM BR BKN020 FM151600 32006KT P6SM BKN035 FM151800 31009G17KT P6SM -SHRA BKN050 FM160100 34004KT P6SM SCT050
Voir NOTAMs / SUP AIP / TFR affectant cet aéroport [VIEW]
Fréquences de communication: [VIEW]

Pistes:

Coordonnées de l'aéroport

Adresse: Edwardsville Borough United States

Vue satellite de PS48